Moleson — HBLE — position and weather

sailwx.info

Track history (hours):
 
Tides and Currents Weather Stations Pressure Air Temp Water Temp Dewpoint Dewpoint Depression Visibility Wind Speed Wind Dir Waves Ship Positions

Moleson

Last reported at 2018-Feb-16 20:59 UTC. Time now 2018-Feb-25 18:15 UTC.
Position N 36°49' E 002°08'.
Warning: this ship's position is 8 days out of date.

Length 181 m; draft 9.6 m.

Type: Cargo ship. MMSI: 269039000.

Date/timePositionNaut miles runAvg speedWind from/ knotsBaromVisibWave heightAir tempDewpointWater temp
2018-Feb-16 20:59N 36°49' E 002°08'612.0
2018-Feb-16 20:30N 36°49' E 002°00'6013.2
2018-Feb-16 15:55N 36°40' E 000°46'913.0
2018-Feb-16 15:15N 36°38' E 000°35'413.0
2018-Feb-16 14:56N 36°37' E 000°30'513.1
2018-Feb-16 14:31N 36°36' E 000°24'27413.0
2018-Feb-15 17:24N 35°60' W 005°13'615.0
2018-Feb-15 17:01N 35°60' W 005°20'714.5
2018-Feb-15 16:31N 35°57' W 005°29'  
2018-Feb-12 15:00N 35°49' W 024°22'712.5
2018-Feb-12 14:26N 35°48' W 024°30'612.3
2018-Feb-12 13:58N 35°48' W 024°37'612.6
2018-Feb-12 13:31N 35°47' W 024°45'612.4
2018-Feb-12 13:00N 35°47' W 024°52'712.6
2018-Feb-12 12:28N 35°46' W 025°01'612.6
2018-Feb-12 11:58N 35°46' W 025°08'612.4
2018-Feb-12 11:30N 35°45' W 025°15'712.6
2018-Feb-12 10:55N 35°44' W 025°24'  
Track history (hours):
 
Tides and Currents Weather Stations Pressure Air Temp Water Temp Dewpoint Dewpoint Depression Visibility Wind Speed Wind Dir Waves Ship Positions

Moleson

Last reported at 2018-Feb-16 20:59 UTC. Time now 2018-Feb-25 18:15 UTC.
Position N 36°49' E 002°08'.
Warning: this ship's position is 8 days out of date.

Length 181 m; draft 9.6 m.

Type: Cargo ship. MMSI: 269039000.

Date/timePositionNaut miles runAvg speedWind from/ knotsBaromVisibWave heightAir tempDewpointWater temp
2018-Feb-16 20:59N 36°49' E 002°08'612.0
2018-Feb-16 20:30N 36°49' E 002°00'6013.2
2018-Feb-16 15:55N 36°40' E 000°46'913.0
2018-Feb-16 15:15N 36°38' E 000°35'413.0
2018-Feb-16 14:56N 36°37' E 000°30'513.1
2018-Feb-16 14:31N 36°36' E 000°24'27413.0
2018-Feb-15 17:24N 35°60' W 005°13'615.0
2018-Feb-15 17:01N 35°60' W 005°20'714.5
2018-Feb-15 16:31N 35°57' W 005°29'  
2018-Feb-12 15:00N 35°49' W 024°22'712.5
2018-Feb-12 14:26N 35°48' W 024°30'612.3
2018-Feb-12 13:58N 35°48' W 024°37'612.6
2018-Feb-12 13:31N 35°47' W 024°45'612.4
2018-Feb-12 13:00N 35°47' W 024°52'712.6
2018-Feb-12 12:28N 35°46' W 025°01'612.6
2018-Feb-12 11:58N 35°46' W 025°08'612.4
2018-Feb-12 11:30N 35°45' W 025°15'712.6
2018-Feb-12 10:55N 35°44' W 025°24'  

Dump ship's entire track history